San Francisco, California
Traffic Map
Current Weather Conditions
San Francisco, California
Broken Clouds
Broken Clouds
15°
Feels Like: 15°
Wind Chill: 15° Ceiling: 20000
Heat Index: 15° Visibility: 10mi
Dew Point: Wind: 24mph
Humidity: 64% Direction: 270° (W)
Pressure: 30in Gusts: 0mph
Raw Report DataKSFO 250056Z 27021KT 10SM FEW013 BKN200 15/08 A3000 RMK AO2 PK WND 27026/0056 SLP159 T01500083
Traffic Incident Summary
Active as of:
Severity:
Category:
InformationThere was an issue retrieving the traffic information for this location. Please try a different location or try again shortly.
Advertisements